createdAt,value
2017-09-16T00:00:24.194Z,100
2017-09-16T00:01:26.637Z,100
2017-09-16T00:02:29.070Z,100
2017-09-16T00:03:31.522Z,100
2017-09-16T00:04:33.969Z,100
2017-09-16T00:05:36.411Z,100
2017-09-16T00:06:38.854Z,100
2017-09-16T00:07:41.290Z,100
2017-09-16T00:08:43.730Z,100
2017-09-16T00:09:46.180Z,100
2017-09-16T00:11:20.714Z,100
2017-09-16T00:12:23.111Z,100
2017-09-16T00:13:25.493Z,100
2017-09-16T00:14:27.892Z,100
2017-09-16T00:15:30.282Z,100
2017-09-16T00:16:32.664Z,100
2017-09-16T00:17:35.059Z,100
2017-09-16T00:18:37.450Z,100
2017-09-16T00:19:39.828Z,100
2017-09-16T00:20:42.225Z,100
2017-09-16T00:21:44.612Z,100
2017-09-16T00:22:46.999Z,100
2017-09-16T00:23:49.388Z,100
2017-09-16T00:24:51.766Z,100
2017-09-16T00:25:54.155Z,100
2017-09-16T00:26:56.900Z,100
2017-09-16T00:27:59.283Z,100
2017-09-16T00:29:01.701Z,100
2017-09-16T00:30:04.121Z,100
2017-09-16T00:31:06.508Z,100
2017-09-16T00:32:09.269Z,100
2017-09-16T00:33:11.660Z,100
2017-09-16T00:34:14.378Z,100
2017-09-16T00:35:16.767Z,100
2017-09-16T00:36:19.148Z,100
2017-09-16T00:37:21.547Z,100
2017-09-16T00:38:23.929Z,100
2017-09-16T00:39:26.317Z,100
2017-09-16T00:40:29.047Z,100
2017-09-16T00:41:31.431Z,100
2017-09-16T00:42:33.813Z,100
2017-09-16T00:43:36.206Z,100
2017-09-16T00:44:38.590Z,100
2017-09-16T00:45:40.984Z,100
2017-09-16T00:46:43.374Z,100
2017-09-16T00:47:45.758Z,100
2017-09-16T00:48:48.142Z,100
2017-09-16T00:49:50.532Z,100
2017-09-16T00:50:52.921Z,100
2017-09-16T00:51:55.307Z,100
2017-09-16T00:52:57.695Z,100
2017-09-16T00:54:00.083Z,100
2017-09-16T00:55:02.474Z,100
2017-09-16T00:56:04.865Z,100
2017-09-16T00:57:07.589Z,100
2017-09-16T00:58:09.982Z,100
2017-09-16T00:59:12.706Z,100
2017-09-16T01:00:15.095Z,100
2017-09-16T01:01:17.817Z,100
2017-09-16T01:02:20.557Z,100
2017-09-16T01:03:22.944Z,100
2017-09-16T01:04:25.334Z,100
2017-09-16T01:05:27.722Z,100
2017-09-16T01:06:30.114Z,100
2017-09-16T01:07:32.499Z,100
2017-09-16T01:08:35.223Z,100
2017-09-16T01:09:37.944Z,100
2017-09-16T01:10:40.331Z,100
2017-09-16T01:11:42.713Z,100
2017-09-16T01:12:45.115Z,100
2017-09-16T01:13:47.506Z,100
2017-09-16T01:14:49.897Z,100
2017-09-16T01:15:52.291Z,100
2017-09-16T01:16:55.029Z,100
2017-09-16T01:17:57.414Z,100
2017-09-16T01:18:59.803Z,100
2017-09-16T01:20:02.548Z,100
2017-09-16T01:21:04.939Z,100
2017-09-16T01:22:07.332Z,100
2017-09-16T01:23:09.717Z,100
2017-09-16T01:24:12.091Z,100
2017-09-16T01:25:14.490Z,100
2017-09-16T01:26:17.212Z,100
2017-09-16T01:27:19.602Z,100
2017-09-16T01:28:21.995Z,100
2017-09-16T01:29:24.378Z,100
2017-09-16T01:30:27.122Z,100
2017-09-16T01:31:29.517Z,100
2017-09-16T01:32:31.901Z,100
2017-09-16T01:33:34.293Z,100
2017-09-16T01:34:36.675Z,100
2017-09-16T01:35:39.073Z,100
2017-09-16T01:36:41.459Z,100
2017-09-16T01:37:43.843Z,100
2017-09-16T01:38:46.237Z,100
2017-09-16T01:39:48.623Z,100
2017-09-16T01:40:51.009Z,100
2017-09-16T01:41:53.405Z,100
2017-09-16T01:42:55.783Z,100
2017-09-16T01:43:58.176Z,100
2017-09-16T01:45:00.577Z,100
2017-09-16T01:46:02.959Z,100
2017-09-16T01:47:05.351Z,100
2017-09-16T01:48:07.733Z,100
2017-09-16T01:49:10.115Z,100
2017-09-16T01:50:12.641Z,100
2017-09-16T01:51:15.029Z,100
2017-09-16T01:52:17.754Z,100
2017-09-16T01:53:20.144Z,100
2017-09-16T01:54:22.871Z,100
2017-09-16T01:55:25.935Z,100
2017-09-16T01:56:28.332Z,100
2017-09-16T01:57:30.712Z,100
2017-09-16T01:58:33.098Z,100
2017-09-16T01:59:35.493Z,100
2017-09-16T02:00:37.879Z,100
2017-09-16T02:01:40.264Z,100
2017-09-16T02:02:42.648Z,100
2017-09-16T02:03:45.042Z,100
2017-09-16T02:04:47.429Z,100
2017-09-16T02:05:50.153Z,100
2017-09-16T02:06:52.543Z,100
2017-09-16T02:07:54.930Z,100
2017-09-16T02:08:57.679Z,100
2017-09-16T02:10:00.070Z,100
2017-09-16T02:11:02.453Z,100
2017-09-16T02:12:05.188Z,100
2017-09-16T02:13:07.583Z,100
2017-09-16T02:14:09.965Z,100
2017-09-16T02:15:12.352Z,100
2017-09-16T02:16:14.731Z,100
2017-09-16T02:17:17.116Z,100
2017-09-16T02:18:19.506Z,100
2017-09-16T02:19:21.890Z,100
2017-09-16T02:20:24.281Z,100
2017-09-16T02:21:26.659Z,100
2017-09-16T02:22:29.048Z,100
2017-09-16T02:23:31.441Z,100
2017-09-16T02:24:33.825Z,100
2017-09-16T02:25:36.206Z,100
2017-09-16T02:26:38.590Z,100
2017-09-16T02:27:40.979Z,100
2017-09-16T02:28:43.370Z,100
2017-09-16T02:29:45.758Z,100
2017-09-16T02:30:48.135Z,100
2017-09-16T02:31:50.529Z,100
2017-09-16T02:32:52.921Z,100
2017-09-16T02:33:55.306Z,100
2017-09-16T02:34:57.691Z,100
2017-09-16T02:36:00.078Z,100
2017-09-16T02:37:02.466Z,100
2017-09-16T02:38:04.856Z,100
2017-09-16T02:39:07.243Z,100
2017-09-16T02:40:09.648Z,100
2017-09-16T02:41:12.024Z,100
2017-09-16T02:42:14.760Z,100
2017-09-16T02:43:17.474Z,100
2017-09-16T02:44:19.861Z,100
2017-09-16T02:45:22.251Z,100
2017-09-16T02:46:24.630Z,100
2017-09-16T02:47:27.357Z,100
2017-09-16T02:48:29.752Z,100
2017-09-16T02:49:32.133Z,100
2017-09-16T02:50:34.524Z,100
2017-09-16T02:51:36.916Z,100
2017-09-16T02:52:39.300Z,100
2017-09-16T02:53:41.681Z,100
2017-09-16T02:54:44.079Z,100
2017-09-16T02:55:46.459Z,100
2017-09-16T02:56:48.861Z,100
2017-09-16T02:57:51.246Z,100
2017-09-16T02:58:53.633Z,100
2017-09-16T02:59:56.018Z,100
2017-09-16T03:00:58.404Z,100
2017-09-16T03:02:00.795Z,100
2017-09-16T03:03:03.183Z,100
2017-09-16T03:04:05.918Z,100
2017-09-16T03:05:08.304Z,100
2017-09-16T03:06:10.679Z,100
2017-09-16T03:07:13.073Z,100
2017-09-16T03:08:15.464Z,100
2017-09-16T03:09:18.193Z,100
2017-09-16T03:10:20.586Z,100
2017-09-16T03:11:22.969Z,100
2017-09-16T03:12:25.356Z,100
2017-09-16T03:13:27.753Z,100
2017-09-16T03:14:30.133Z,100
2017-09-16T03:15:32.519Z,100
2017-09-16T03:16:34.906Z,100
2017-09-16T03:17:37.640Z,100
2017-09-16T03:18:40.026Z,100
2017-09-16T03:19:42.411Z,100
2017-09-16T03:20:45.132Z,100
2017-09-16T03:21:47.521Z,100
2017-09-16T03:22:49.914Z,100
2017-09-16T03:23:52.297Z,100
2017-09-16T03:24:54.681Z,100
2017-09-16T03:25:57.074Z,100
2017-09-16T03:26:59.462Z,100
2017-09-16T03:28:01.860Z,100
2017-09-16T03:29:04.247Z,100
2017-09-16T03:30:07.317Z,100
2017-09-16T03:31:09.702Z,100
2017-09-16T03:32:12.426Z,100
2017-09-16T03:33:14.819Z,100
2017-09-16T03:34:17.201Z,100
2017-09-16T03:35:19.582Z,100
2017-09-16T03:36:21.976Z,100
2017-09-16T03:37:24.357Z,100
2017-09-16T03:38:26.750Z,100
2017-09-16T03:39:29.139Z,100
2017-09-16T03:40:31.517Z,100
2017-09-16T03:41:34.247Z,100
2017-09-16T03:42:36.635Z,100
2017-09-16T03:43:39.019Z,100
2017-09-16T03:44:41.411Z,100
2017-09-16T03:45:43.806Z,100
2017-09-16T03:46:46.188Z,100
2017-09-16T03:47:48.575Z,100
2017-09-16T03:48:50.987Z,100
2017-09-16T03:49:53.372Z,100
2017-09-16T03:50:55.760Z,100
2017-09-16T03:51:58.146Z,100
2017-09-16T03:53:00.526Z,100
2017-09-16T03:54:03.269Z,100
2017-09-16T03:55:05.653Z,100
2017-09-16T03:56:08.042Z,100
2017-09-16T03:57:10.431Z,100
2017-09-16T03:58:12.819Z,100
2017-09-16T03:59:15.203Z,100
2017-09-16T04:00:17.593Z,100
2017-09-16T04:01:19.974Z,100
2017-09-16T04:02:22.359Z,100
2017-09-16T04:03:24.750Z,100
2017-09-16T04:04:27.144Z,100
2017-09-16T04:05:29.523Z,100
2017-09-16T04:06:31.913Z,100
2017-09-16T04:07:34.300Z,100
2017-09-16T04:08:36.739Z,100
2017-09-16T04:09:39.128Z,100
2017-09-16T04:10:41.517Z,100
2017-09-16T04:11:44.243Z,100
2017-09-16T04:12:46.642Z,100
2017-09-16T04:13:49.028Z,100
2017-09-16T04:14:51.408Z,100
2017-09-16T04:15:53.810Z,100
2017-09-16T04:16:56.199Z,100
2017-09-16T04:17:58.587Z,100
2017-09-16T04:19:00.979Z,100
2017-09-16T04:20:03.354Z,100
2017-09-16T04:21:05.740Z,100
2017-09-16T04:22:08.132Z,100
2017-09-16T04:23:10.518Z,100
2017-09-16T04:24:13.241Z,100
2017-09-16T04:25:15.977Z,100
2017-09-16T04:26:18.365Z,100
2017-09-16T04:27:20.763Z,100
2017-09-16T04:28:23.511Z,100
2017-09-16T04:29:26.275Z,100
2017-09-16T04:30:28.714Z,100
2017-09-16T04:31:31.147Z,100
2017-09-16T04:32:33.580Z,100
2017-09-16T04:33:36.029Z,100
2017-09-16T04:34:38.489Z,100
2017-09-16T04:35:40.938Z,100
2017-09-16T04:36:43.399Z,100
2017-09-16T04:37:45.858Z,100
2017-09-16T04:38:48.320Z,100
2017-09-16T04:39:50.766Z,100
2017-09-16T04:40:53.229Z,100
2017-09-16T04:41:56.026Z,100
2017-09-16T04:42:58.829Z,100
2017-09-16T04:44:01.273Z,100
2017-09-16T04:45:03.720Z,100
2017-09-16T04:46:06.188Z,100
2017-09-16T04:47:08.632Z,100
2017-09-16T04:48:11.088Z,100
2017-09-16T04:49:13.547Z,100
2017-09-16T04:50:15.992Z,100
2017-09-16T04:51:18.442Z,100
2017-09-16T04:52:20.897Z,100
2017-09-16T04:53:23.679Z,100
2017-09-16T04:54:26.142Z,100
2017-09-16T04:55:28.585Z,100
2017-09-16T04:56:32.065Z,100
2017-09-16T04:57:34.504Z,100
2017-09-16T04:58:36.949Z,100
2017-09-16T04:59:39.395Z,100
2017-09-16T05:00:41.838Z,100
2017-09-16T05:01:44.289Z,100
2017-09-16T05:02:47.062Z,100
2017-09-16T05:03:49.509Z,100
2017-09-16T05:04:51.963Z,100
2017-09-16T05:05:54.413Z,100
2017-09-16T05:06:56.859Z,100
2017-09-16T05:07:59.307Z,100
2017-09-16T05:09:01.751Z,100
2017-09-16T05:10:04.219Z,100
2017-09-16T05:11:06.656Z,100
2017-09-16T05:12:09.090Z,100
2017-09-16T05:13:11.541Z,100
2017-09-16T05:14:13.986Z,100
2017-09-16T05:15:16.455Z,100
2017-09-16T05:16:18.894Z,100
2017-09-16T05:17:21.344Z,100
2017-09-16T05:18:23.795Z,100
2017-09-16T05:19:26.258Z,100
2017-09-16T05:20:28.721Z,100
2017-09-16T05:21:31.168Z,100
2017-09-16T05:22:33.608Z,100
2017-09-16T05:23:36.060Z,100
2017-09-16T05:24:38.508Z,100
2017-09-16T05:25:40.954Z,100
2017-09-16T05:26:43.401Z,100
2017-09-16T05:27:45.849Z,100
2017-09-16T05:28:48.289Z,100
2017-09-16T05:29:50.745Z,100
2017-09-16T05:30:53.193Z,100
2017-09-16T05:31:55.679Z,100
2017-09-16T05:32:58.466Z,100
2017-09-16T05:34:00.933Z,100
2017-09-16T05:35:03.378Z,100
2017-09-16T05:36:05.821Z,100
2017-09-16T05:37:08.601Z,100
2017-09-16T05:38:11.254Z,100
2017-09-16T05:39:13.693Z,100
2017-09-16T05:40:16.138Z,100
2017-09-16T05:41:18.589Z,100
2017-09-16T05:42:21.025Z,100
2017-09-16T05:43:23.493Z,100
2017-09-16T05:44:25.940Z,100
2017-09-16T05:45:28.389Z,100
2017-09-16T05:46:30.833Z,100
2017-09-16T05:47:33.283Z,100
2017-09-16T05:48:35.838Z,100
2017-09-16T05:49:38.285Z,100
2017-09-16T05:50:40.734Z,100
2017-09-16T05:51:43.166Z,100
2017-09-16T05:52:45.612Z,100
2017-09-16T05:53:48.131Z,100
2017-09-16T05:54:50.567Z,100
2017-09-16T05:55:53.006Z,100
2017-09-16T05:56:55.446Z,100
2017-09-16T05:57:57.894Z,100
2017-09-16T05:59:00.425Z,100
2017-09-16T06:00:03.211Z,100
2017-09-16T06:01:05.649Z,100
2017-09-16T06:02:08.085Z,100
2017-09-16T06:03:10.532Z,100
2017-09-16T06:04:12.973Z,100
2017-09-16T06:05:15.413Z,100
2017-09-16T06:06:17.854Z,100
2017-09-16T06:07:20.286Z,100
2017-09-16T06:08:22.730Z,100
2017-09-16T06:09:25.233Z,100
2017-09-16T06:10:27.674Z,100
2017-09-16T06:11:30.113Z,100
2017-09-16T06:12:32.561Z,100
2017-09-16T06:13:35.008Z,100
2017-09-16T06:14:37.466Z,100
2017-09-16T06:15:40.244Z,100
2017-09-16T06:16:43.032Z,100
2017-09-16T06:17:45.468Z,100
2017-09-16T06:18:47.910Z,100
2017-09-16T06:19:50.348Z,100
2017-09-16T06:20:52.794Z,100
2017-09-16T06:21:55.238Z,100
2017-09-16T06:22:57.677Z,100
2017-09-16T06:24:00.128Z,100
2017-09-16T06:25:02.587Z,100
2017-09-16T06:26:05.027Z,100
2017-09-16T06:27:07.478Z,100
2017-09-16T06:28:09.918Z,100
2017-09-16T06:29:12.361Z,100
2017-09-16T06:30:14.804Z,100
2017-09-16T06:31:17.253Z,100
2017-09-16T06:32:20.005Z,100
2017-09-16T06:33:22.390Z,100
2017-09-16T06:34:24.778Z,100
2017-09-16T06:35:27.175Z,100
2017-09-16T06:36:29.568Z,100
2017-09-16T06:37:31.959Z,100
2017-09-16T06:38:34.369Z,100
2017-09-16T06:39:36.765Z,100
2017-09-16T06:40:39.509Z,100
2017-09-16T06:41:41.920Z,100
2017-09-16T06:42:44.296Z,100
2017-09-16T06:43:46.712Z,100
2017-09-16T06:44:49.117Z,100
2017-09-16T06:45:51.509Z,100
2017-09-16T06:46:53.904Z,100
2017-09-16T06:47:56.289Z,100
2017-09-16T06:48:58.676Z,100
2017-09-16T06:50:01.776Z,100
2017-09-16T06:51:04.177Z,100
2017-09-16T06:52:06.574Z,100
2017-09-16T06:53:08.974Z,100
2017-09-16T06:54:11.381Z,100
2017-09-16T06:55:13.798Z,100
2017-09-16T06:56:16.198Z,100
2017-09-16T06:57:18.627Z,100
2017-09-16T06:58:21.015Z,100
2017-09-16T06:59:23.424Z,100
2017-09-16T07:00:25.832Z,100
2017-09-16T07:01:28.277Z,100
2017-09-16T07:02:30.688Z,100
2017-09-16T07:03:33.085Z,100
2017-09-16T07:04:35.813Z,99
2017-09-16T07:05:38.212Z,99
2017-09-16T07:06:40.623Z,99
2017-09-16T07:07:43.014Z,99
2017-09-16T07:08:45.422Z,99
2017-09-16T07:09:47.811Z,99
2017-09-16T07:10:50.204Z,99
2017-09-16T07:11:52.610Z,99
2017-09-16T07:12:55.011Z,99
2017-09-16T07:13:57.396Z,99
2017-09-16T07:15:00.153Z,98
2017-09-16T07:16:02.553Z,98
2017-09-16T07:17:04.947Z,98
2017-09-16T07:18:07.350Z,98
2017-09-16T07:19:10.113Z,98
2017-09-16T07:20:12.482Z,98
2017-09-16T07:21:14.893Z,98
2017-09-16T07:22:17.638Z,98
2017-09-16T07:23:20.034Z,98
2017-09-16T07:24:22.424Z,98
2017-09-16T07:25:24.824Z,97
2017-09-16T07:26:27.203Z,97
2017-09-16T07:27:29.601Z,97
2017-09-16T07:28:32.327Z,97
2017-09-16T07:29:34.734Z,97
2017-09-16T07:30:37.128Z,97
2017-09-16T07:31:39.525Z,97
2017-09-16T07:32:41.910Z,97
2017-09-16T07:33:44.301Z,97
2017-09-16T07:34:47.035Z,97
2017-09-16T07:35:49.427Z,97
2017-09-16T07:36:52.154Z,97
2017-09-16T07:37:54.887Z,97
2017-09-16T07:38:57.277Z,97
2017-09-16T07:39:59.677Z,96
2017-09-16T07:41:02.071Z,96
2017-09-16T07:42:04.453Z,96
2017-09-16T07:43:06.845Z,96
2017-09-16T07:44:09.238Z,95
2017-09-16T07:45:11.631Z,95
2017-09-16T07:46:14.026Z,95
2017-09-16T07:47:16.406Z,94
2017-09-16T07:48:18.807Z,94
2017-09-16T07:49:21.200Z,94
2017-09-16T07:50:23.793Z,94
2017-09-16T07:51:26.189Z,94
2017-09-16T07:52:28.578Z,94
2017-09-16T07:53:30.965Z,94
2017-09-16T07:54:33.373Z,94
2017-09-16T07:55:35.760Z,93
2017-09-16T07:56:38.150Z,93
2017-09-16T07:57:40.558Z,93
2017-09-16T07:58:42.945Z,93
2017-09-16T07:59:45.346Z,92
2017-09-16T08:00:47.743Z,92
2017-09-16T08:01:50.135Z,92
2017-09-16T08:02:52.527Z,92
2017-09-16T08:03:54.918Z,92
2017-09-16T08:04:57.304Z,92
2017-09-16T08:05:59.701Z,91
2017-09-16T08:07:02.091Z,91
2017-09-16T08:08:04.821Z,90
2017-09-16T08:09:07.215Z,89
2017-09-16T08:10:09.605Z,89
2017-09-16T08:11:12.006Z,89
2017-09-16T08:12:14.412Z,88
2017-09-16T08:13:16.796Z,87
2017-09-16T08:14:19.198Z,87
2017-09-16T08:15:21.593Z,87
2017-09-16T08:16:23.979Z,87
2017-09-16T08:17:26.387Z,87
2017-09-16T08:18:29.124Z,86
2017-09-16T08:19:31.856Z,86
2017-09-16T08:20:34.617Z,86
2017-09-16T08:21:37.011Z,85
2017-09-16T08:22:39.412Z,84
2017-09-16T08:23:41.809Z,84
2017-09-16T08:24:44.203Z,83
2017-09-16T08:25:46.595Z,83
2017-09-16T08:26:48.990Z,83
2017-09-16T08:27:51.382Z,82
2017-09-16T08:28:53.780Z,82
2017-09-16T08:29:56.173Z,82
2017-09-16T08:30:58.569Z,82
2017-09-16T08:32:00.961Z,81
2017-09-16T08:33:03.361Z,81
2017-09-16T08:34:05.758Z,81
2017-09-16T08:35:08.151Z,82
2017-09-16T08:36:10.550Z,82
2017-09-16T08:37:12.932Z,81
2017-09-16T08:38:15.356Z,82
2017-09-16T08:39:17.749Z,81
2017-09-16T08:40:20.148Z,81
2017-09-16T08:41:22.553Z,80
2017-09-16T08:42:24.951Z,80
2017-09-16T08:43:27.358Z,79
2017-09-16T08:44:30.086Z,79
2017-09-16T08:45:32.490Z,78
2017-09-16T08:46:34.882Z,78
2017-09-16T08:47:37.283Z,78
2017-09-16T08:48:40.049Z,78
2017-09-16T08:49:42.452Z,79
2017-09-16T08:50:44.851Z,78
2017-09-16T08:51:47.252Z,78
2017-09-16T08:52:49.663Z,77
2017-09-16T08:53:52.420Z,78
2017-09-16T08:54:54.827Z,77
2017-09-16T08:55:57.219Z,76
2017-09-16T08:56:59.618Z,78
2017-09-16T08:58:02.015Z,77
2017-09-16T08:59:04.417Z,77
2017-09-16T09:00:06.816Z,76
2017-09-16T09:01:09.218Z,75
2017-09-16T09:02:11.618Z,75
2017-09-16T09:03:14.015Z,74
2017-09-16T09:04:16.761Z,75
2017-09-16T09:05:19.169Z,75
2017-09-16T09:06:21.575Z,74
2017-09-16T09:07:23.978Z,74
2017-09-16T09:08:26.373Z,73
2017-09-16T09:09:28.781Z,72
2017-09-16T09:10:31.197Z,73
2017-09-16T09:11:33.599Z,71
2017-09-16T09:12:36.002Z,72
2017-09-16T09:13:38.406Z,72
2017-09-16T09:14:40.808Z,72
2017-09-16T09:15:43.212Z,73
2017-09-16T09:16:45.611Z,72
2017-09-16T09:17:48.020Z,73
2017-09-16T09:18:50.421Z,72
2017-09-16T09:19:52.836Z,72
2017-09-16T09:20:55.232Z,71
2017-09-16T09:21:57.636Z,71
2017-09-16T09:23:00.041Z,70
2017-09-16T09:24:02.439Z,70
2017-09-16T09:25:04.843Z,71
2017-09-16T09:26:07.246Z,71
2017-09-16T09:27:09.646Z,70
2017-09-16T09:28:12.048Z,70
2017-09-16T09:29:14.460Z,70
2017-09-16T09:30:17.204Z,70
2017-09-16T09:31:19.600Z,71
2017-09-16T09:32:22.010Z,71
2017-09-16T09:33:24.415Z,71
2017-09-16T09:34:26.811Z,73
2017-09-16T09:35:29.227Z,71
2017-09-16T09:36:31.616Z,73
2017-09-16T09:37:34.025Z,72
2017-09-16T09:38:36.423Z,74
2017-09-16T09:39:39.171Z,72
2017-09-16T09:40:41.910Z,71
2017-09-16T09:41:44.316Z,71
2017-09-16T09:42:46.715Z,72
2017-09-16T09:43:49.123Z,73
2017-09-16T09:44:51.529Z,73
2017-09-16T09:45:53.928Z,73
2017-09-16T09:46:56.334Z,72
2017-09-16T09:47:58.744Z,73
2017-09-16T09:49:01.144Z,72
2017-09-16T09:50:03.894Z,73
2017-09-16T09:51:06.292Z,73
2017-09-16T09:52:08.691Z,74
2017-09-16T09:53:11.111Z,75
2017-09-16T09:54:13.512Z,73
2017-09-16T09:55:15.938Z,73
2017-09-16T09:56:18.342Z,73
2017-09-16T09:57:20.752Z,71
2017-09-16T09:58:23.172Z,73
2017-09-16T09:59:25.913Z,73
2017-09-16T10:00:28.311Z,73
2017-09-16T10:01:30.722Z,71
2017-09-16T10:02:33.137Z,71
2017-09-16T10:03:35.548Z,72
2017-09-16T10:04:37.960Z,71
2017-09-16T10:05:40.365Z,70
2017-09-16T10:06:42.766Z,70
2017-09-16T10:07:45.161Z,70
2017-09-16T10:08:47.564Z,71
2017-09-16T10:09:50.295Z,71
2017-09-16T10:10:53.043Z,72
2017-09-16T10:11:55.471Z,72
2017-09-16T10:12:57.900Z,72
2017-09-16T10:14:00.294Z,72
2017-09-16T10:15:02.697Z,71
2017-09-16T10:16:05.098Z,72
2017-09-16T10:17:07.521Z,71
2017-09-16T10:18:10.278Z,68
2017-09-16T10:19:12.677Z,67
2017-09-16T10:20:15.076Z,67
2017-09-16T10:21:17.477Z,68
2017-09-16T10:22:19.880Z,69
2017-09-16T10:23:22.304Z,67
2017-09-16T10:24:24.686Z,67
2017-09-16T10:25:27.438Z,68
2017-09-16T10:26:29.843Z,66
2017-09-16T10:27:32.585Z,67
2017-09-16T10:28:35.672Z,67
2017-09-16T10:29:38.101Z,67
2017-09-16T10:30:40.503Z,67
2017-09-16T10:31:43.619Z,67
2017-09-16T10:32:46.015Z,68
2017-09-16T10:33:48.414Z,73
2017-09-16T10:34:50.805Z,71
2017-09-16T10:35:53.224Z,70
2017-09-16T10:36:55.618Z,72
2017-09-16T10:37:58.362Z,69
2017-09-16T10:39:00.761Z,68
2017-09-16T10:40:03.162Z,65
2017-09-16T10:41:05.569Z,64
2017-09-16T10:42:07.986Z,65
2017-09-16T10:43:10.375Z,63
2017-09-16T10:44:12.780Z,63
2017-09-16T10:45:15.226Z,63
2017-09-16T10:46:18.364Z,63
2017-09-16T10:47:20.771Z,61
2017-09-16T10:48:23.204Z,62
2017-09-16T10:49:25.622Z,60
2017-09-16T10:50:28.047Z,58
2017-09-16T10:51:30.448Z,61
2017-09-16T10:52:32.848Z,60
2017-09-16T10:53:35.255Z,61
2017-09-16T10:54:37.665Z,61
2017-09-16T10:55:40.066Z,63
2017-09-16T10:56:42.472Z,61
2017-09-16T10:57:44.876Z,61
2017-09-16T10:58:47.287Z,62
2017-09-16T10:59:49.692Z,62
2017-09-16T11:00:52.450Z,62
2017-09-16T11:01:54.858Z,64
2017-09-16T11:02:57.262Z,65
2017-09-16T11:03:59.679Z,65
2017-09-16T11:05:02.095Z,66
2017-09-16T11:06:04.493Z,66
2017-09-16T11:07:07.237Z,65
2017-09-16T11:08:09.663Z,65
2017-09-16T11:09:12.061Z,64
2017-09-16T11:10:14.464Z,64
2017-09-16T11:11:16.869Z,63
2017-09-16T11:12:19.301Z,61
2017-09-16T11:13:22.057Z,61
2017-09-16T11:14:24.456Z,59
2017-09-16T11:15:27.205Z,59
2017-09-16T11:16:29.635Z,60
2017-09-16T11:17:32.025Z,59
2017-09-16T11:18:34.430Z,60
2017-09-16T11:19:37.176Z,59
2017-09-16T11:20:39.591Z,61
2017-09-16T11:21:42.004Z,62
2017-09-16T11:22:44.749Z,60
2017-09-16T11:23:47.180Z,61
2017-09-16T11:24:49.617Z,62
2017-09-16T11:25:52.020Z,61
2017-09-16T11:26:54.481Z,61
2017-09-16T11:27:56.880Z,61
2017-09-16T11:28:59.297Z,61
2017-09-16T11:30:01.715Z,60
2017-09-16T11:31:04.110Z,61
2017-09-16T11:32:06.510Z,61
2017-09-16T11:33:08.920Z,61
2017-09-16T11:34:11.664Z,59
2017-09-16T11:35:14.100Z,58
2017-09-16T11:36:16.503Z,58
2017-09-16T11:37:18.905Z,58
2017-09-16T11:38:21.667Z,58
2017-09-16T11:39:24.074Z,57
2017-09-16T11:40:26.524Z,57
2017-09-16T11:41:28.932Z,57
2017-09-16T11:42:31.372Z,57
2017-09-16T11:43:33.797Z,56
2017-09-16T11:44:36.204Z,58
2017-09-16T11:45:38.607Z,58
2017-09-16T11:46:41.019Z,58
2017-09-16T11:47:43.463Z,58
2017-09-16T11:48:45.880Z,58
2017-09-16T11:49:48.289Z,57
2017-09-16T11:50:50.692Z,55
2017-09-16T11:51:53.093Z,57
2017-09-16T11:52:55.510Z,56
2017-09-16T11:53:58.293Z,57
2017-09-16T11:55:00.701Z,58
2017-09-16T11:56:03.099Z,56
2017-09-16T11:57:05.844Z,57
2017-09-16T11:58:08.248Z,57
2017-09-16T11:59:10.652Z,57
2017-09-16T12:00:13.058Z,57
2017-09-16T12:01:15.466Z,56
2017-09-16T12:02:17.873Z,57
2017-09-16T12:03:20.615Z,57
2017-09-16T12:04:23.356Z,57
2017-09-16T12:05:25.761Z,58
2017-09-16T12:06:28.166Z,59
2017-09-16T12:07:30.572Z,60
2017-09-16T12:08:32.980Z,61
2017-09-16T12:09:35.387Z,62
2017-09-16T12:10:37.790Z,64
2017-09-16T12:11:40.190Z,65
2017-09-16T12:12:42.603Z,67
2017-09-16T12:13:45.361Z,63
2017-09-16T12:14:47.766Z,63
2017-09-16T12:15:50.164Z,65
2017-09-16T12:16:52.561Z,67
2017-09-16T12:17:55.188Z,64
2017-09-16T12:18:57.594Z,65
2017-09-16T12:19:59.996Z,66
2017-09-16T12:21:02.410Z,65
2017-09-16T12:22:04.815Z,60
2017-09-16T12:23:07.228Z,61
2017-09-16T12:24:09.631Z,60
2017-09-16T12:25:12.025Z,59
2017-09-16T12:26:14.431Z,59
2017-09-16T12:27:16.837Z,58
2017-09-16T12:28:19.239Z,59
2017-09-16T12:29:21.645Z,60
2017-09-16T12:30:24.284Z,60
2017-09-16T12:32:18.034Z,59
2017-09-16T12:33:20.486Z,59
2017-09-16T12:34:22.950Z,58
2017-09-16T12:35:25.409Z,57
2017-09-16T12:36:27.865Z,57
2017-09-16T12:37:30.324Z,58
2017-09-16T12:38:32.980Z,56
2017-09-16T12:39:35.431Z,58
2017-09-16T12:40:37.898Z,58
2017-09-16T12:41:40.351Z,57
2017-09-16T12:42:42.822Z,56
2017-09-16T12:43:45.622Z,53
2017-09-16T12:44:48.080Z,53
2017-09-16T12:45:50.535Z,52
2017-09-16T12:46:53.001Z,52
2017-09-16T12:47:55.821Z,52
2017-09-16T12:48:58.295Z,52
2017-09-16T12:50:00.742Z,53
2017-09-16T12:51:03.198Z,54
2017-09-16T12:52:05.663Z,52
2017-09-16T12:53:08.125Z,53
2017-09-16T12:54:10.582Z,51
2017-09-16T12:55:13.046Z,51
2017-09-16T12:56:15.500Z,51
2017-09-16T12:57:17.965Z,50
2017-09-16T12:58:20.421Z,51
2017-09-16T12:59:22.884Z,51
2017-09-16T13:00:25.357Z,52
2017-09-16T13:01:27.841Z,57
2017-09-16T13:02:30.657Z,52
2017-09-16T13:03:33.115Z,50
2017-09-16T13:04:35.587Z,52
2017-09-16T13:05:38.042Z,50
2017-09-16T13:06:40.508Z,51
2017-09-16T13:07:42.962Z,51
2017-09-16T13:08:45.423Z,51
2017-09-16T13:09:47.890Z,53
2017-09-16T13:10:50.350Z,52
2017-09-16T13:11:52.817Z,51
2017-09-16T13:12:55.633Z,50
2017-09-16T13:13:58.089Z,51
2017-09-16T13:15:00.561Z,49
2017-09-16T13:16:03.014Z,50
2017-09-16T13:17:05.475Z,52
2017-09-16T13:18:07.943Z,53
2017-09-16T13:19:10.416Z,53
2017-09-16T13:20:12.874Z,54
2017-09-16T13:21:15.336Z,53
2017-09-16T13:22:17.798Z,53
2017-09-16T13:23:20.268Z,52
2017-09-16T13:24:22.734Z,55
2017-09-16T13:25:25.191Z,54
2017-09-16T13:26:27.999Z,54
2017-09-16T13:27:30.466Z,54
2017-09-16T13:28:33.258Z,53
2017-09-16T13:29:35.725Z,57
2017-09-16T13:30:38.194Z,57
2017-09-16T13:31:40.654Z,60
2017-09-16T13:32:43.113Z,56
2017-09-16T13:33:45.924Z,56
2017-09-16T13:34:48.386Z,60
2017-09-16T13:35:50.846Z,61
2017-09-16T13:36:53.310Z,63
2017-09-16T13:37:55.757Z,64
2017-09-16T13:38:58.221Z,62
2017-09-16T13:40:00.686Z,63
2017-09-16T13:41:03.146Z,61
2017-09-16T13:42:05.610Z,62
2017-09-16T13:43:08.076Z,62
2017-09-16T13:44:10.536Z,62
2017-09-16T13:45:13.336Z,60
2017-09-16T13:46:16.141Z,60
2017-09-16T13:47:18.594Z,60
2017-09-16T13:48:21.059Z,59
2017-09-16T13:49:23.864Z,61
2017-09-16T13:50:26.324Z,61
2017-09-16T13:51:28.787Z,60
2017-09-16T13:52:31.590Z,60
2017-09-16T13:53:34.053Z,62
2017-09-16T13:54:36.513Z,61
2017-09-16T13:55:38.964Z,61
2017-09-16T13:56:41.427Z,63
2017-09-16T13:57:43.887Z,64
2017-09-16T13:58:46.346Z,62
2017-09-16T13:59:48.801Z,62
2017-09-16T14:00:51.262Z,63
2017-09-16T14:01:54.064Z,65
2017-09-16T14:02:56.531Z,66
2017-09-16T14:03:58.987Z,67
2017-09-16T14:05:01.797Z,66
2017-09-16T14:06:04.600Z,67
2017-09-16T14:07:07.065Z,66
2017-09-16T14:08:09.865Z,68
2017-09-16T14:09:12.319Z,69
2017-09-16T14:10:14.774Z,66
2017-09-16T14:11:17.235Z,65
2017-09-16T14:12:20.036Z,65
2017-09-16T14:13:22.485Z,65
2017-09-16T14:14:24.945Z,69
2017-09-16T14:15:27.398Z,72
2017-09-16T14:16:29.861Z,73
2017-09-16T14:17:32.317Z,72
2017-09-16T14:18:34.780Z,71
2017-09-16T14:19:37.240Z,73
2017-09-16T14:20:39.705Z,69
2017-09-16T14:21:42.350Z,69
2017-09-16T14:22:44.787Z,70
2017-09-16T14:23:47.198Z,69
2017-09-16T14:24:49.941Z,69
2017-09-16T14:25:52.357Z,69
2017-09-16T14:26:55.094Z,69
2017-09-16T14:27:57.841Z,69
2017-09-16T14:29:00.257Z,70
2017-09-16T14:30:02.647Z,69
2017-09-16T14:31:05.057Z,70
2017-09-16T14:32:07.472Z,70
2017-09-16T14:33:09.882Z,70
2017-09-16T14:34:12.323Z,69
2017-09-16T14:35:14.724Z,69
2017-09-16T14:36:17.158Z,67
2017-09-16T14:37:19.569Z,67